Time;durP1;ratioP1;P1;durP2;ratioP2;P2;SDS_P1;SDS_P2;PMS_P1;PMS_P2;Temp;Humidity;BMP_temperature;BMP_pressure;BME280_temperature;BME280_humidity;BME280_pressure;Samples;Min_cycle;Max_cycle;Signal;HPM_P1;HPM_P2
2022/09/29 00:02:01;;;;;;;2.53;1.97;;;10.50;99.90;;;;;;5011340;28;20680;-64
2022/09/29 00:04:28;;;;;;;3.87;2.20;;;10.50;99.90;;;;;;5002918;28;20704;-64
2022/09/29 00:06:55;;;;;;;1.57;1.47;;;10.50;99.90;;;;;;4996602;28;20729;-64
2022/09/29 00:09:21;;;;;;;3.07;2.40;;;10.40;99.90;;;;;;4971218;28;20643;-64
2022/09/29 00:11:48;;;;;;;1.57;1.50;;;10.30;99.90;;;;;;4996702;28;20721;-65
2022/09/29 00:14:14;;;;;;;2.20;1.90;;;10.30;99.90;;;;;;4980890;28;21264;-62
2022/09/29 00:16:41;;;;;;;1.47;1.37;;;10.20;99.90;;;;;;5007338;28;21251;-64
2022/09/29 00:19:08;;;;;;;1.47;1.37;;;10.10;99.90;;;;;;5011367;28;20675;-63
2022/09/29 00:21:35;;;;;;;1.90;1.70;;;10.10;99.90;;;;;;5013066;28;20628;-63
2022/09/29 00:24:01;;;;;;;2.93;2.03;;;10.00;99.90;;;;;;5012378;28;20679;-64
2022/09/29 00:26:28;;;;;;;2.27;2.13;;;10.00;99.90;;;;;;5013347;28;20654;-64
2022/09/29 00:28:57;;;;;;;1.90;1.80;;;10.00;99.90;;;;;;5009454;28;21057;-63
2022/09/29 00:31:25;;;;;;;2.37;1.50;;;9.90;99.90;;;;;;5006456;28;20677;-63
2022/09/29 00:33:52;;;;;;;3.57;2.10;;;9.80;99.90;;;;;;5011752;28;20706;-64
2022/09/29 00:36:20;;;;;;;1.83;1.50;;;9.80;99.90;;;;;;4963304;28;20709;-64
2022/09/29 00:38:49;;;;;;;4.17;2.80;;;9.80;99.90;;;;;;4991850;28;20644;-64
2022/09/29 00:41:34;;;;;;;2.40;1.77;;;9.80;99.90;;;;;;5009952;28;20629;-63
2022/09/29 00:44:06;;;;;;;1.90;1.80;;;9.80;99.90;;;;;;4981662;28;20718;-64
2022/09/29 00:46:44;;;;;;;1.80;1.70;;;9.80;99.90;;;;;;5005883;28;20659;-64
2022/09/29 00:49:33;;;;;;;1.97;1.60;;;9.90;99.90;;;;;;4992522;28;20620;-64
2022/09/29 00:52:48;;;;;;;3.67;2.60;;;9.80;99.90;;;;;;5007402;28;20688;-63
2022/09/29 00:55:23;;;;;;;2.90;1.80;;;9.70;99.90;;;;;;4988567;28;20661;-64
2022/09/29 00:58:17;;;;;;;2.50;2.00;;;9.70;99.90;;;;;;5012874;28;20623;-65
2022/09/29 01:00:44;;;;;;;3.53;2.20;;;9.60;99.90;;;;;;4992529;28;21189;-64
2022/09/29 01:03:16;;;;;;;8.40;2.53;;;9.60;99.90;;;;;;4992328;28;21221;-64
2022/09/29 01:05:48;;;;;;;2.23;2.03;;;9.60;99.90;;;;;;4959548;28;20653;-65
2022/09/29 01:08:32;;;;;;;4.07;2.93;;;9.60;99.90;;;;;;5003699;28;20621;-64
2022/09/29 01:11:01;;;;;;;2.70;2.50;;;9.60;99.90;;;;;;4982337;28;21213;-64
2022/09/29 01:13:28;;;;;;;7.50;3.10;;;9.60;99.90;;;;;;4991685;28;20609;-64
2022/09/29 01:15:55;;;;;;;2.53;2.23;;;9.50;99.90;;;;;;4997922;28;20673;-64
2022/09/29 01:18:22;;;;;;;2.20;1.93;;;9.40;99.90;;;;;;4975754;28;20624;-64
2022/09/29 01:21:18;;;;;;;6.97;2.40;;;9.40;99.90;;;;;;4971976;28;20621;-64
2022/09/29 01:24:06;;;;;;;3.23;2.60;;;9.40;99.90;;;;;;4971877;28;21043;-64
2022/09/29 01:27:03;;;;;;;7.03;3.40;;;9.40;99.90;;;;;;4973174;28;20637;-65
2022/09/29 01:29:38;;;;;;;3.10;2.03;;;9.30;99.90;;;;;;4989478;28;20712;-65
2022/09/29 01:32:14;;;;;;;2.40;1.60;;;9.30;99.90;;;;;;4990999;28;20718;-64
2022/09/29 01:34:44;;;;;;;0.40;0.40;;;9.30;99.90;;;;;;4992953;28;20633;-64
2022/09/29 01:37:39;;;;;;;3.30;1.73;;;9.30;99.90;;;;;;5010131;28;20717;-64
2022/09/29 01:40:10;;;;;;;3.47;2.53;;;9.30;99.90;;;;;;5006652;28;20632;-64
2022/09/29 01:42:45;;;;;;;2.83;1.70;;;9.30;99.90;;;;;;4991628;28;20593;-65
2022/09/29 01:45:25;;;;;;;5.00;2.83;;;9.20;99.90;;;;;;4989960;28;20642;-64
2022/09/29 01:47:57;;;;;;;9.47;4.47;;;9.20;99.90;;;;;;4990425;28;20648;-65
2022/09/29 01:50:34;;;;;;;6.70;4.40;;;9.30;99.90;;;;;;5011367;28;20615;-65
2022/09/29 01:53:06;;;;;;;2.27;1.80;;;9.40;99.90;;;;;;5005339;28;20676;-64
2022/09/29 01:55:36;;;;;;;2.17;1.97;;;9.40;99.90;;;;;;5010578;28;20671;-65
2022/09/29 01:58:11;;;;;;;3.90;1.87;;;9.40;99.90;;;;;;4988003;28;20630;-64
2022/09/29 02:00:45;;;;;;;2.40;1.50;;;9.30;99.90;;;;;;5002282;28;20638;-64
2022/09/29 02:03:19;;;;;;;2.93;1.47;;;9.30;99.90;;;;;;5014684;28;20670;-65
2022/09/29 02:05:55;;;;;;;2.83;2.50;;;9.30;99.90;;;;;;5014482;28;20992;-64
2022/09/29 02:08:51;;;;;;;1.73;1.33;;;9.20;99.90;;;;;;4996755;28;20886;-63
2022/09/29 02:11:18;;;;;;;2.90;2.00;;;9.20;99.90;;;;;;4983522;28;20646;-62
2022/09/29 02:14:10;;;;;;;2.57;1.97;;;9.20;99.90;;;;;;4998106;28;20611;-64
2022/09/29 02:16:47;;;;;;;3.33;1.97;;;9.20;99.90;;;;;;4989412;28;21038;-64
2022/09/29 02:19:24;;;;;;;3.47;2.10;;;9.10;99.90;;;;;;4976474;28;21172;-64
2022/09/29 02:21:53;;;;;;;2.90;2.30;;;9.10;99.90;;;;;;4985571;28;20698;-64
2022/09/29 02:24:22;;;;;;;5.30;2.73;;;9.20;99.90;;;;;;5017112;28;21008;-64
2022/09/29 02:26:50;;;;;;;5.80;1.70;;;9.20;99.90;;;;;;5017391;28;21380;-65
2022/09/29 02:29:17;;;;;;;3.17;2.30;;;9.20;99.90;;;;;;5007855;28;21284;-65
2022/09/29 02:31:46;;;;;;;5.37;3.20;;;9.30;99.90;;;;;;5016140;28;21029;-64
2022/09/29 02:34:17;;;;;;;2.57;1.53;;;9.40;99.90;;;;;;5005584;28;21186;-63
2022/09/29 02:36:56;;;;;;;5.50;3.13;;;9.40;99.90;;;;;;5017551;28;20664;-63
2022/09/29 02:39:33;;;;;;;5.00;2.80;;;9.40;99.90;;;;;;5007898;28;20808;-64
2022/09/29 02:42:28;;;;;;;6.93;3.03;;;9.40;99.90;;;;;;5006007;28;20640;-64
2022/09/29 02:45:10;;;;;;;5.50;3.40;;;9.50;99.90;;;;;;5015600;28;20690;-64
2022/09/29 02:48:03;;;;;;;4.57;2.97;;;9.50;99.90;;;;;;5016347;28;20699;-63
2022/09/29 02:50:48;;;;;;;6.03;3.40;;;9.50;99.90;;;;;;4987899;28;21177;-63
2022/09/29 02:53:33;;;;;;;8.17;3.37;;;9.60;99.90;;;;;;5015839;28;20664;-64
2022/09/29 02:56:05;;;;;;;3.73;2.10;;;9.50;99.90;;;;;;5016746;28;20644;-65
2022/09/29 02:58:41;;;;;;;6.40;3.37;;;9.50;99.90;;;;;;5002023;28;20642;-64
2022/09/29 03:01:15;;;;;;;8.37;3.53;;;9.50;99.90;;;;;;4998080;28;20624;-64
2022/09/29 03:03:42;;;;;;;5.27;3.07;;;9.50;99.90;;;;;;4996701;28;20702;-65
2022/09/29 03:06:10;;;;;;;6.07;3.47;;;9.60;99.90;;;;;;5013136;28;20675;-65
2022/09/29 03:08:37;;;;;;;7.70;4.37;;;9.60;99.90;;;;;;5015811;28;20624;-65
2022/09/29 03:11:04;;;;;;;8.80;4.07;;;9.60;99.90;;;;;;4989049;28;20649;-65
2022/09/29 03:13:30;;;;;;;6.30;3.37;;;9.70;99.90;;;;;;4974899;28;20662;-65
2022/09/29 03:15:57;;;;;;;4.50;3.10;;;9.70;99.90;;;;;;5005956;23;20710;-66
2022/09/29 03:18:23;;;;;;;9.57;4.80;;;9.70;99.90;;;;;;5011539;28;20608;-66
2022/09/29 03:20:53;;;;;;;9.97;3.93;;;9.70;99.90;;;;;;5013173;28;20993;-66
2022/09/29 03:23:20;;;;;;;6.00;2.73;;;9.80;99.90;;;;;;5032247;28;20632;-67
2022/09/29 03:25:47;;;;;;;4.93;3.50;;;9.70;99.90;;;;;;5032537;28;21055;-66
2022/09/29 03:28:15;;;;;;;6.80;3.87;;;9.70;99.90;;;;;;5029306;28;20765;-66
2022/09/29 03:30:42;;;;;;;8.63;4.00;;;9.70;99.90;;;;;;5031090;28;20643;-66
2022/09/29 03:33:09;;;;;;;7.67;4.23;;;9.60;99.90;;;;;;5031558;28;20836;-66
2022/09/29 03:35:35;;;;;;;6.47;3.97;;;9.60;99.90;;;;;;5031245;28;21044;-66
2022/09/29 03:38:02;;;;;;;8.50;4.03;;;9.60;99.90;;;;;;5031152;28;20696;-65
2022/09/29 03:40:29;;;;;;;3.23;2.93;;;9.60;99.90;;;;;;5028021;28;20632;-66
2022/09/29 03:42:55;;;;;;;4.80;3.07;;;9.60;99.90;;;;;;5031437;28;20630;-65
2022/09/29 03:45:22;;;;;;;6.27;3.77;;;9.60;99.90;;;;;;5030940;28;20616;-66
2022/09/29 03:47:49;;;;;;;6.40;3.70;;;9.60;99.90;;;;;;5032227;28;20619;-65
2022/09/29 03:50:16;;;;;;;4.67;3.17;;;9.60;99.90;;;;;;5030908;28;20668;-65
2022/09/29 03:52:42;;;;;;;9.37;4.87;;;9.60;99.90;;;;;;5031528;28;20875;-66
2022/09/29 03:55:09;;;;;;;7.43;4.40;;;9.70;99.90;;;;;;5032772;28;20629;-66
2022/09/29 03:57:36;;;;;;;7.40;3.23;;;9.70;99.90;;;;;;5032278;28;20691;-66
2022/09/29 04:00:03;;;;;;;6.73;3.40;;;9.60;99.90;;;;;;5031972;28;20658;-66
2022/09/29 04:02:29;;;;;;;7.80;4.30;;;9.70;99.90;;;;;;5030920;28;20686;-66
2022/09/29 04:04:56;;;;;;;8.87;4.53;;;9.70;99.90;;;;;;5028073;28;20667;-66
2022/09/29 04:07:23;;;;;;;10.47;4.33;;;9.70;99.90;;;;;;5029170;28;20661;-65
2022/09/29 04:09:49;;;;;;;7.70;3.90;;;9.70;99.90;;;;;;5030754;28;21259;-66
2022/09/29 04:12:16;;;;;;;8.63;4.40;;;9.70;99.90;;;;;;5031538;28;20672;-66
2022/09/29 04:14:42;;;;;;;10.00;5.30;;;9.70;99.90;;;;;;5031824;28;20609;-66
2022/09/29 04:17:09;;;;;;;6.77;4.67;;;9.60;99.90;;;;;;5032187;28;21313;-67
2022/09/29 04:19:36;;;;;;;6.90;4.50;;;9.60;99.90;;;;;;5031505;28;20611;-66
2022/09/29 04:22:02;;;;;;;8.03;4.90;;;9.70;99.90;;;;;;5030553;28;20705;-66
2022/09/29 04:24:29;;;;;;;9.17;5.07;;;9.80;99.90;;;;;;5030758;28;20624;-66
2022/09/29 04:26:56;;;;;;;7.57;4.53;;;9.80;99.90;;;10.18;nan;99114.47;5030190;28;21002;-67
2022/09/29 04:29:22;;;;;;;10.80;4.73;;;9.90;99.90;;;10.34;nan;99117.28;5031427;28;20635;-66
2022/09/29 04:31:49;;;;;;;10.70;5.20;;;10.00;99.90;;;10.34;nan;99122.50;5023637;28;20714;-66
2022/09/29 04:34:16;;;;;;;9.80;5.97;;;10.00;99.90;;;10.42;nan;99113.94;5031331;28;20624;-66
2022/09/29 04:36:44;;;;;;;11.60;4.47;;;10.00;99.90;;;10.47;nan;99117.75;5031034;28;20663;-66
2022/09/29 04:39:11;;;;;;;11.43;5.93;;;10.10;99.90;;;10.51;nan;99129.53;5030348;28;20635;-66
2022/09/29 04:41:40;;;;;;;11.50;6.40;;;10.10;99.90;;;10.55;nan;99125.66;5030707;28;20686;-66
2022/09/29 04:44:07;;;;;;;9.57;5.57;;;10.10;99.90;;;10.61;nan;99135.50;5031828;28;21008;-66
2022/09/29 04:46:34;;;;;;;10.93;6.00;;;10.20;99.90;;;10.70;nan;99139.03;5030695;28;21234;-66
2022/09/29 04:49:00;;;;;;;9.47;4.90;;;10.20;99.90;;;10.73;nan;99138.75;5031508;28;20624;-66
2022/09/29 04:51:27;;;;;;;9.83;4.50;;;10.20;99.90;;;10.75;nan;99147.25;5030281;28;20646;-66
2022/09/29 04:53:56;;;;;;;7.17;5.00;;;10.30;99.90;;;10.72;nan;99143.13;5032006;28;20672;-66
2022/09/29 04:56:24;;;;;;;9.57;5.00;;;10.30;99.90;;;10.77;nan;99143.53;5032038;28;20649;-66
2022/09/29 04:58:50;;;;;;;9.90;4.53;;;10.30;99.90;;;10.76;nan;99143.66;5031355;28;20641;-66
2022/09/29 05:01:17;;;;;;;11.20;5.33;;;10.30;99.90;;;10.78;nan;99147.75;5030494;28;21001;-66
2022/09/29 05:03:44;;;;;;;10.60;5.27;;;10.30;99.90;;;10.81;nan;99146.66;5024595;28;20639;-67
2022/09/29 05:06:12;;;;;;;8.30;5.30;;;10.30;99.90;;;10.85;nan;99143.59;5030655;28;20659;-66
2022/09/29 05:08:38;;;;;;;9.00;5.03;;;10.30;99.90;;;10.75;nan;99142.81;5030875;28;20623;-66
2022/09/29 05:11:07;;;;;;;6.10;3.63;;;10.40;99.90;;;10.57;nan;99149.81;5030575;28;20648;-66
2022/09/29 05:13:34;;;;;;;9.00;3.70;;;10.30;99.90;;;10.56;nan;99155.19;5013286;28;20670;-66
2022/09/29 05:16:02;;;;;;;6.47;3.37;;;10.30;99.90;;;10.59;nan;99153.09;5029281;28;20673;-66
2022/09/29 05:18:30;;;;;;;5.70;3.30;;;10.20;99.90;;;10.26;nan;99145.88;5012425;28;21078;-66
2022/09/29 05:21:08;;;;;;;6.40;3.90;;;10.10;99.90;;;10.06;nan;99145.09;5030223;28;20632;-65
2022/09/29 05:23:54;;;;;;;5.00;3.00;;;10.00;99.90;;;10.03;nan;99149.75;5031901;28;20626;-65
2022/09/29 05:26:20;;;;;;;11.43;5.23;;;9.90;99.90;;;10.03;nan;99150.56;5030865;28;20715;-66
2022/09/29 05:28:47;;;;;;;10.17;3.67;;;9.90;99.90;;;10.19;nan;99147.41;5029914;28;20647;-65
2022/09/29 05:31:15;;;;;;;9.80;4.27;;;9.90;99.90;;;10.19;nan;99152.59;5030620;28;20616;-65
2022/09/29 05:33:42;;;;;;;9.23;3.77;;;9.90;99.90;;;10.22;nan;99141.91;5029873;28;20690;-65
2022/09/29 05:36:11;;;;;;;12.10;4.60;;;9.90;99.90;;;10.27;nan;99146.66;5028895;28;20667;-66
2022/09/29 05:38:39;;;;;;;10.70;4.50;;;9.90;99.90;;;10.29;nan;99145.56;5030464;28;20630;-66
2022/09/29 05:41:09;;;;;;;10.67;4.83;;;9.90;99.90;;;10.39;nan;99146.31;5029446;28;20655;-65
2022/09/29 05:43:37;;;;;;;7.97;3.90;;;9.90;99.90;;;10.46;nan;99152.59;5013610;28;20632;-65
2022/09/29 05:46:08;;;;;;;11.60;4.20;;;10.00;99.90;;;10.34;nan;99153.78;5030522;28;20648;-65
2022/09/29 05:48:35;;;;;;;9.20;4.63;;;10.00;99.90;;;10.49;nan;99154.13;5014054;28;20631;-66
2022/09/29 05:51:09;;;;;;;12.20;4.87;;;10.00;99.90;;;10.39;nan;99154.16;5029665;28;20658;-65
2022/09/29 05:53:36;;;;;;;11.60;5.60;;;10.00;99.90;;;10.50;nan;99158.38;5029424;28;20678;-65
2022/09/29 05:56:10;;;;;;;11.90;5.37;;;10.00;99.90;;;10.60;nan;99170.41;5029608;28;20649;-65
2022/09/29 05:58:39;;;;;;;16.40;5.57;;;10.10;99.90;;;10.63;nan;99170.09;5011834;28;20629;-66
2022/09/29 06:01:07;;;;;;;12.07;5.60;;;10.10;99.90;;;10.47;nan;99171.69;5029422;28;20632;-65
2022/09/29 06:03:36;;;;;;;8.40;4.20;;;10.10;99.90;;;10.55;nan;99172.63;5030200;28;20629;-65
2022/09/29 06:06:11;;;;;;;6.70;4.20;;;10.20;99.90;;;10.63;nan;99184.91;5011616;28;20669;-65
2022/09/29 06:08:38;;;;;;;5.60;3.07;;;10.20;99.90;;;10.55;nan;99177.81;5030478;28;20635;-65
2022/09/29 06:11:15;;;;;;;7.40;3.17;;;10.20;99.90;;;10.32;nan;99184.38;5029720;28;20670;-65
2022/09/29 06:13:48;;;;;;;4.67;3.07;;;10.10;99.90;;;10.14;nan;99186.09;5030158;28;20661;-65
2022/09/29 06:16:18;;;;;;;8.03;3.53;;;10.00;99.90;;;10.16;nan;99181.53;5028471;28;20730;-66
2022/09/29 06:18:46;;;;;;;9.63;4.77;;;9.90;99.90;;;10.33;nan;99180.00;5013044;28;20617;-65
2022/09/29 06:21:18;;;;;;;6.77;3.30;;;9.90;99.90;;;10.54;nan;99189.22;5030260;28;20628;-65
2022/09/29 06:23:45;;;;;;;8.10;3.87;;;10.10;99.90;;;10.53;nan;99184.97;5028681;28;20644;-65
2022/09/29 06:26:14;;;;;;;9.30;4.40;;;10.10;99.90;;;10.68;nan;99188.75;5030475;28;20648;-65
2022/09/29 06:28:45;;;;;;;9.07;4.87;;;10.10;99.90;;;10.74;nan;99189.94;5028994;28;20615;-65
2022/09/29 06:31:15;;;;;;;11.90;4.87;;;10.20;99.90;;;10.91;nan;99189.16;5030092;28;20628;-65
2022/09/29 06:33:43;;;;;;;6.80;3.37;;;10.30;99.90;;;10.94;nan;99192.28;5030240;28;21239;-65
2022/09/29 06:39:09;;;;;;;10.80;4.40;;;10.40;99.90;;;11.10;nan;99185.56;5026529;28;20636;-65
2022/09/29 06:41:36;;;;;;;6.90;3.43;;;10.50;99.90;;;11.02;nan;99188.13;5029452;28;20667;-65
2022/09/29 06:44:03;;;;;;;7.60;4.20;;;10.60;99.90;;;11.07;nan;99191.94;5029120;28;20694;-65
2022/09/29 06:46:30;;;;;;;6.13;3.40;;;10.60;99.90;;;11.15;nan;99185.97;5029338;28;20666;-66
2022/09/29 06:48:57;;;;;;;9.73;4.47;;;10.60;99.90;;;11.12;nan;99183.63;5016321;28;20709;-65
2022/09/29 06:51:25;;;;;;;7.67;4.47;;;10.70;99.90;;;11.20;nan;99188.97;5028026;28;20628;-65
2022/09/29 06:54:04;;;;;;;9.20;4.83;;;10.70;99.90;;;11.25;nan;99191.94;5029583;28;20669;-65
2022/09/29 06:56:37;;;;;;;14.60;7.30;;;10.70;99.90;;;11.32;nan;99195.59;5032728;28;20817;-65
2022/09/29 06:59:04;;;;;;;12.97;7.27;;;10.70;99.90;;;11.41;nan;99200.75;5014988;28;20638;-65
2022/09/29 07:01:31;;;;;;;10.37;5.17;;;10.80;99.90;;;11.57;nan;99205.28;5032237;28;20762;-65
2022/09/29 07:04:01;;;;;;;12.37;5.47;;;10.90;99.90;;;11.24;nan;99198.13;5031759;28;20629;-65
2022/09/29 07:06:29;;;;;;;10.70;4.60;;;10.80;99.90;;;11.36;nan;99202.16;5025387;28;21595;-65
2022/09/29 07:08:58;;;;;;;11.50;5.60;;;10.90;99.90;;;11.25;nan;99207.59;5031883;28;21269;-65
2022/09/29 07:11:26;;;;;;;14.37;6.30;;;10.90;99.90;;;11.31;nan;99201.75;5031874;28;20640;-66
2022/09/29 07:13:54;;;;;;;12.93;6.30;;;10.80;99.90;;;11.34;nan;99201.47;5015018;28;20664;-66
2022/09/29 07:16:25;;;;;;;8.57;4.70;;;10.80;99.90;;;11.35;nan;99203.94;5016286;28;20656;-65
2022/09/29 07:18:52;;;;;;;12.10;5.53;;;10.80;99.90;;;11.58;nan;99210.34;5033063;28;20621;-65
2022/09/29 07:21:20;;;;;;;13.60;6.27;;;10.90;99.90;;;11.59;nan;99211.16;5015131;28;20619;-66
2022/09/29 07:23:47;;;;;;;13.20;6.63;;;11.00;99.90;;;11.84;nan;99213.03;5029793;28;20637;-63
2022/09/29 07:26:16;;;;;;;12.80;6.70;;;11.10;99.90;;;11.86;nan;99208.47;5025502;28;20649;-65
2022/09/29 07:28:44;;;;;;;13.47;6.27;;;11.20;99.90;;;11.96;nan;99209.22;5028374;28;20625;-65
2022/09/29 07:31:15;;;;;;;24.10;7.07;;;11.30;99.90;;;12.14;nan;99207.34;5031281;28;20637;-66
2022/09/29 07:33:43;;;;;;;14.27;6.87;;;11.40;99.90;;;12.22;nan;99212.63;5032644;28;21216;-65
2022/09/29 07:36:12;;;;;;;14.37;6.40;;;11.50;99.90;;;12.33;nan;99217.59;5030174;28;21054;-65
2022/09/29 07:38:39;;;;;;;21.07;10.00;;;11.60;99.90;;;12.48;nan;99219.66;5012832;28;21218;-66
2022/09/29 07:41:10;;;;;;;14.20;7.60;;;11.70;99.90;;;12.49;nan;99219.47;5030832;28;20650;-63
2022/09/29 07:43:38;;;;;;;17.53;8.50;;;11.70;99.90;;;12.58;nan;99215.94;5014904;28;20628;-65
2022/09/29 07:46:06;;;;;;;20.80;9.40;;;11.80;99.90;;;12.65;nan;99224.78;5014071;28;20671;-65
2022/09/29 07:48:35;;;;;;;21.17;10.47;;;11.90;99.90;;;12.65;nan;99229.22;5032240;28;20623;-67
2022/09/29 07:51:06;;;;;;;12.73;7.17;;;11.90;99.90;;;12.75;nan;99227.28;5014225;28;20651;-66
2022/09/29 07:53:35;;;;;;;17.83;8.60;;;11.90;99.90;;;12.68;nan;99223.63;5029699;28;20799;-65
2022/09/29 07:56:17;;;;;;;18.57;9.60;;;12.00;99.90;;;12.48;nan;99221.25;5031260;28;20665;-66
2022/09/29 07:58:46;;;;;;;11.17;6.10;;;11.90;99.90;;;12.66;nan;99221.19;4994020;28;21242;-65
2022/09/29 08:01:14;;;;;;;16.10;6.90;;;11.90;99.90;;;12.69;nan;99225.31;5018613;28;20657;-66
2022/09/29 08:03:51;;;;;;;15.00;8.17;;;11.90;99.90;;;12.71;nan;99229.41;5030348;28;20663;-66
2022/09/29 08:06:19;;;;;;;17.87;8.60;;;11.90;99.90;;;12.70;nan;99234.78;5012187;28;20671;-65
2022/09/29 08:08:46;;;;;;;15.57;7.50;;;11.90;99.90;;;12.75;nan;99240.38;5028549;28;20628;-65
2022/09/29 08:11:27;;;;;;;13.43;7.90;;;12.00;99.90;;;12.76;nan;99234.13;5029117;28;20637;-65
2022/09/29 08:13:58;;;;;;;13.70;6.60;;;12.00;99.90;;;12.78;nan;99238.25;5032003;28;20673;-66
2022/09/29 08:16:25;;;;;;;13.60;5.60;;;12.00;99.90;;;12.86;nan;99246.13;5024206;28;21281;-65
2022/09/29 08:18:52;;;;;;;12.50;7.20;;;12.00;99.90;;;12.76;nan;99244.59;5031287;28;20627;-66
2022/09/29 08:21:19;;;;;;;18.73;9.17;;;12.10;99.90;;;12.80;nan;99245.97;5024746;28;20637;-65
2022/09/29 08:23:47;;;;;;;17.60;8.70;;;12.10;99.90;;;12.78;nan;99248.72;5032331;28;20663;-66
2022/09/29 08:26:18;;;;;;;21.50;7.30;;;12.10;99.90;;;12.85;nan;99246.28;5013954;28;20660;-65
2022/09/29 08:28:49;;;;;;;17.40;7.77;;;12.10;99.90;;;13.02;nan;99247.97;5022472;28;21275;-62
2022/09/29 08:31:30;;;;;;;21.57;9.60;;;12.20;99.90;;;13.02;nan;99250.59;5027809;28;20644;-64
2022/09/29 08:33:58;;;;;;;17.63;8.67;;;12.20;99.90;;;13.11;nan;99250.50;5030398;28;20676;-64
2022/09/29 08:36:25;;;;;;;33.20;10.90;;;12.20;99.90;;;13.08;nan;99255.22;5030761;28;20999;-64
2022/09/29 08:38:55;;;;;;;14.10;7.43;;;12.30;99.90;;;13.31;nan;99264.13;5030684;28;20633;-65
2022/09/29 08:41:55;;;;;;;16.57;8.13;;;12.40;99.90;;;13.47;nan;99265.97;5032238;28;20621;-63
2022/09/29 08:44:37;;;;;;;22.90;11.00;;;12.50;99.90;;;13.59;nan;99265.50;5030831;28;20617;-64
2022/09/29 08:47:30;;;;;;;30.57;11.87;;;12.60;99.90;;;13.73;nan;99269.28;5024374;28;20664;-64
2022/09/29 08:50:41;;;;;;;22.70;9.93;;;12.70;99.90;;;13.87;nan;99274.69;5015177;28;20698;-64
2022/09/29 08:53:14;;;;;;;20.37;9.17;;;12.80;99.90;;;14.04;nan;99270.25;5030271;28;20633;-64
2022/09/29 08:56:04;;;;;;;25.43;11.90;;;12.90;99.90;;;14.06;nan;99277.94;5014668;28;20644;-64
2022/09/29 08:58:33;;;;;;;14.43;7.47;;;13.00;99.90;;;14.07;nan;99277.81;5011236;28;20629;-67
2022/09/29 09:01:22;;;;;;;33.73;16.40;;;13.10;99.90;;;13.99;nan;99272.56;5022390;28;20622;-65
2022/09/29 09:04:34;;;;;;;22.70;11.50;;;13.10;99.90;;;13.97;nan;99275.34;5024054;28;20710;-65
2022/09/29 09:07:38;;;;;;;21.07;10.60;;;13.20;99.90;;;14.00;nan;99284.69;5025787;28;20743;-67
2022/09/29 09:10:46;;;;;;;14.47;7.30;;;13.20;99.90;;;13.87;nan;99282.56;5026789;28;20641;-65
2022/09/29 09:13:32;;;;;;;17.93;8.00;;;13.20;99.90;;;14.41;nan;99282.88;5006828;28;20636;-65
2022/09/29 09:16:23;;;;;;;16.97;8.10;;;13.30;99.90;;;14.69;nan;99284.91;5043291;22;20643;-65
2022/09/29 09:19:44;;;;;;;24.57;8.77;;;13.60;99.90;;;14.79;nan;99282.09;5009406;28;20625;-64
2022/09/29 09:22:24;;;;;;;17.20;7.70;;;13.80;99.90;;;14.99;nan;99285.97;4987685;28;20760;-65
2022/09/29 09:25:00;;;;;;;23.03;8.27;;;14.00;99.90;;;15.02;nan;99288.25;4991570;28;20644;-65
2022/09/29 09:27:36;;;;;;;18.47;8.03;;;14.00;99.90;;;14.78;nan;99298.84;4980565;28;20666;-64
2022/09/29 09:30:12;;;;;;;23.20;10.37;;;14.00;99.90;;;14.90;nan;99292.25;4971945;28;20701;-64
2022/09/29 09:32:54;;;;;;;19.20;10.60;;;13.90;99.90;;;15.28;nan;99294.06;4973334;28;20684;-64
2022/09/29 09:35:33;;;;;;;19.77;10.00;;;14.10;99.90;;;15.54;nan;99294.56;4985234;28;20663;-65
2022/09/29 09:38:17;;;;;;;23.93;10.50;;;14.20;99.90;;;15.40;nan;99292.66;4970476;28;21234;-66
2022/09/29 09:40:51;;;;;;;21.20;10.70;;;14.30;99.90;;;15.12;nan;99294.13;4976615;28;20629;-65
2022/09/29 09:43:41;;;;;;;24.97;8.37;;;14.20;99.90;;;14.62;nan;99299.72;4999747;28;20630;-65
2022/09/29 09:46:21;;;;;;;18.17;8.03;;;14.10;99.90;;;14.77;nan;99292.78;4980698;28;20654;-64
2022/09/29 09:49:02;;;;;;;17.27;8.43;;;14.00;99.90;;;14.90;nan;99297.50;4946336;28;20620;-65
2022/09/29 09:52:27;;;;;;;19.10;9.63;;;14.00;99.90;;;14.71;nan;99297.91;4986064;28;20689;-65
2022/09/29 09:54:59;;;;;;;16.60;8.80;;;14.00;99.90;;;15.18;nan;99297.88;5000284;28;20708;-64
2022/09/29 09:57:55;;;;;;;16.67;9.27;;;14.10;99.90;;;15.80;nan;99296.06;4998745;28;20647;-64
2022/09/29 10:00:36;;;;;;;16.20;7.87;;;14.40;99.90;;;16.16;nan;99295.25;4987905;28;20637;-65
2022/09/29 10:03:06;;;;;;;16.17;8.80;;;14.60;99.90;;;16.51;nan;99293.81;4971733;28;20630;-65
2022/09/29 10:05:44;;;;;;;13.50;7.40;;;14.90;99.90;;;16.94;nan;99300.91;4972079;28;21377;-63
2022/09/29 10:08:29;;;;;;;14.37;7.50;;;15.20;99.90;;;17.65;nan;99299.34;4989157;28;20704;-62
2022/09/29 10:10:58;;;;;;;18.30;10.17;;;15.60;99.90;;;18.88;nan;99308.47;4994533;28;20623;-62
2022/09/29 10:13:30;;;;;;;23.87;11.93;;;16.30;99.90;;;20.09;nan;99304.81;4988445;28;20643;-63
2022/09/29 10:16:13;;;;;;;17.10;8.77;;;17.20;99.90;;;20.46;nan;99305.25;4989790;28;20658;-64
2022/09/29 10:18:52;;;;;;;15.33;8.40;;;17.80;99.90;;;20.64;nan;99308.88;4976231;28;20627;-64
2022/09/29 10:21:44;;;;;;;14.40;7.87;;;18.20;99.90;;;20.32;nan;99303.59;4996372;28;20630;-64
2022/09/29 10:24:28;;;;;;;17.60;8.50;;;18.30;99.90;;;20.98;nan;99297.16;4996541;28;20642;-64
2022/09/29 10:26:59;;;;;;;13.50;6.60;;;18.70;99.90;;;21.19;nan;99314.69;4994992;28;20672;-65
2022/09/29 10:29:51;;;;;;;14.10;8.57;;;18.90;99.90;;;20.82;nan;99309.06;4975414;28;20654;-64
2022/09/29 10:32:35;;;;;;;14.87;8.00;;;18.90;99.90;;;21.72;nan;99317.91;4970890;28;20635;-63
2022/09/29 10:35:33;;;;;;;13.17;8.17;;;19.20;99.90;;;21.40;nan;99307.22;4977819;28;21324;-64
2022/09/29 10:38:06;;;;;;;14.47;8.13;;;19.40;99.90;;;21.36;nan;99311.34;4987352;28;20662;-63
2022/09/29 10:40:34;;;;;;;14.90;8.70;;;19.50;99.90;;;21.12;nan;99305.94;4992196;28;20765;-63
2022/09/29 10:43:24;;;;;;;19.13;11.63;;;19.40;99.90;;;20.85;nan;99307.81;4975729;28;21191;-63
2022/09/29 10:45:57;;;;;;;18.07;10.27;;;19.30;99.90;;;20.95;nan;99318.81;4992653;28;20635;-63
2022/09/29 10:48:25;;;;;;;19.03;10.47;;;19.20;99.90;;;21.12;nan;99309.41;4988057;28;20640;-63
2022/09/29 10:50:59;;;;;;;14.17;10.00;;;19.10;99.90;;;21.10;nan;99308.81;4972274;28;20642;-64
2022/09/29 10:53:41;;;;;;;17.63;10.60;;;19.10;99.90;;;20.85;nan;99300.69;4979355;28;21196;-64
2022/09/29 10:56:21;;;;;;;20.20;10.57;;;19.00;99.90;;;20.54;nan;99308.50;4978582;28;21012;-64
2022/09/29 10:58:57;;;;;;;15.63;8.90;;;18.80;99.90;;;20.34;nan;99302.38;4995860;28;20621;-65
2022/09/29 11:01:37;;;;;;;14.50;8.90;;;18.70;99.90;;;20.16;nan;99296.88;4978868;28;20654;-65
2022/09/29 11:04:44;;;;;;;14.30;8.40;;;18.50;99.90;;;19.76;nan;99293.34;4978767;28;20980;-65
2022/09/29 11:07:12;;;;;;;15.73;10.40;;;18.30;99.90;;;19.79;nan;99308.84;4981809;28;20662;-63
2022/09/29 11:09:43;;;;;;;17.90;10.50;;;18.30;99.90;;;19.84;nan;99303.78;4977804;28;20631;-64
2022/09/29 11:12:34;;;;;;;20.23;11.47;;;18.30;99.90;;;19.85;nan;99302.72;4995098;28;21055;-68
2022/09/29 11:15:06;;;;;;;20.07;11.20;;;18.20;99.90;;;19.40;nan;99297.34;4977915;28;20670;-65
2022/09/29 11:17:38;;;;;;;15.93;8.77;;;18.10;99.90;;;19.23;nan;99307.41;4980414;28;20740;-65
2022/09/29 11:20:13;;;;;;;19.57;10.40;;;17.90;99.90;;;19.09;nan;99303.09;4994975;28;20638;-65
2022/09/29 11:23:02;;;;;;;19.17;12.00;;;17.80;99.90;;;19.00;nan;99299.78;4978077;28;20625;-63
2022/09/29 11:26:32;;;;;;;19.57;11.63;;;17.70;99.90;;;18.96;nan;99297.72;4994940;28;21181;-67
2022/09/29 11:29:10;;;;;;;14.60;9.90;;;17.70;99.90;;;19.32;nan;99300.94;4984660;28;20630;-65
2022/09/29 11:32:38;;;;;;;21.97;10.93;;;17.70;99.90;;;19.53;nan;99297.41;4995067;28;20621;-66
2022/09/29 11:35:49;;;;;;;26.30;13.00;;;17.80;99.90;;;19.54;nan;99293.72;4985696;28;20665;-65
2022/09/29 11:38:46;;;;;;;20.17;11.27;;;18.00;99.90;;;19.41;nan;99304.25;4971747;28;21224;-64
2022/09/29 11:41:35;;;;;;;17.00;10.60;;;18.00;99.90;;;19.44;nan;99293.28;4977051;28;20636;-64
2022/09/29 11:44:44;;;;;;;18.77;9.93;;;18.00;99.90;;;19.42;nan;99305.91;4994712;28;20636;-65
2022/09/29 11:47:24;;;;;;;19.80;10.07;;;18.10;99.90;;;19.28;nan;99303.19;4953523;28;20669;-64
2022/09/29 11:50:12;;;;;;;14.90;8.53;;;18.00;99.90;;;19.37;nan;99298.56;4994237;28;21186;-65
2022/09/29 11:53:10;;;;;;;14.00;8.43;;;17.90;99.90;;;19.49;nan;99306.72;4994610;28;20627;-64